Time;durP1;ratioP1;P1;durP2;ratioP2;P2;SDS_P1;SDS_P2;PMS_P1;PMS_P2;Temp;Humidity;BMP_temperature;BMP_pressure;BME280_temperature;BME280_humidity;BME280_pressure;Samples;Min_cycle;Max_cycle;Signal;HPM_P1;HPM_P2
2024/01/30 00:02:12;;;;;;;15.57;7.88;;;3.30;99.90;;;;;;4927038;29;20306;-75
2024/01/30 00:04:38;;;;;;;14.27;8.20;;;3.30;99.90;;;;;;4909218;29;20040;-76
2024/01/30 00:07:04;;;;;;;11.02;7.50;;;3.30;99.90;;;;;;4909981;29;20032;-76
2024/01/30 00:09:30;;;;;;;15.55;7.63;;;3.30;99.90;;;;;;4926271;29;20031;-76
2024/01/30 00:11:56;;;;;;;12.95;7.32;;;3.30;99.90;;;;;;4909460;29;20030;-76
2024/01/30 00:14:22;;;;;;;13.93;7.53;;;3.20;99.90;;;;;;4925526;29;20036;-76
2024/01/30 00:16:49;;;;;;;15.07;8.57;;;3.30;99.90;;;;;;4927369;29;20079;-77
2024/01/30 00:19:14;;;;;;;14.07;8.00;;;3.30;99.90;;;;;;4910059;29;20310;-75
2024/01/30 00:21:40;;;;;;;13.07;7.90;;;3.30;99.90;;;;;;4908958;29;20050;-76
2024/01/30 00:24:06;;;;;;;11.85;7.35;;;3.30;99.90;;;;;;4909790;29;20039;-75
2024/01/30 00:26:32;;;;;;;13.75;7.63;;;3.30;99.90;;;;;;4925936;29;20223;-76
2024/01/30 00:28:58;;;;;;;13.98;8.23;;;3.20;99.90;;;;;;4926004;29;20024;-76
2024/01/30 00:31:24;;;;;;;11.05;7.32;;;3.20;99.90;;;;;;4926355;29;20024;-75
2024/01/30 00:33:50;;;;;;;14.00;7.70;;;3.20;99.90;;;;;;4908662;29;20036;-76
2024/01/30 00:36:16;;;;;;;13.32;8.20;;;3.20;99.90;;;;;;4926114;29;20111;-76
2024/01/30 00:38:42;;;;;;;14.10;8.07;;;3.20;99.90;;;;;;4908961;29;20270;-76
2024/01/30 00:41:10;;;;;;;12.43;7.65;;;3.30;99.90;;;;;;4909126;29;20051;-77
2024/01/30 00:43:36;;;;;;;17.92;8.07;;;3.30;99.90;;;;;;4908763;29;20137;-77
2024/01/30 00:46:03;;;;;;;15.05;8.43;;;3.30;99.90;;;;;;4923618;29;20043;-75
2024/01/30 00:48:28;;;;;;;12.70;7.68;;;3.30;99.90;;;;;;4924450;29;20080;-76
2024/01/30 00:50:54;;;;;;;13.98;7.50;;;3.40;99.90;;;;;;4924502;29;20031;-76
2024/01/30 00:53:20;;;;;;;12.20;8.13;;;3.40;99.90;;;;;;4909356;29;20298;-76
2024/01/30 00:55:46;;;;;;;11.82;7.82;;;3.40;99.90;;;;;;4925687;29;20152;-76
2024/01/30 00:58:11;;;;;;;12.73;7.35;;;3.40;99.90;;;;;;4924827;29;20047;-76
2024/01/30 01:00:37;;;;;;;17.52;9.18;;;3.40;99.90;;;;;;4924436;29;20107;-76
2024/01/30 01:03:03;;;;;;;12.85;7.55;;;3.30;99.90;;;;;;4909199;29;20039;-76
2024/01/30 01:05:29;;;;;;;14.05;8.13;;;3.30;99.90;;;;;;4908809;29;20032;-77
2024/01/30 01:07:54;;;;;;;13.32;7.97;;;3.30;99.90;;;;;;4925875;29;20023;-76
2024/01/30 01:10:20;;;;;;;14.50;7.95;;;3.20;99.90;;;;;;4909085;29;20040;-77
2024/01/30 01:12:46;;;;;;;14.30;8.52;;;3.20;99.90;;;;;;4925235;29;20036;-77
2024/01/30 01:15:12;;;;;;;13.35;7.72;;;3.20;99.90;;;;;;4925967;29;20028;-75
2024/01/30 01:17:38;;;;;;;12.90;7.68;;;3.10;99.90;;;;;;4927977;29;20047;-75
2024/01/30 01:20:06;;;;;;;13.57;8.13;;;3.20;99.90;;;;;;4928649;29;20039;-76
2024/01/30 01:22:32;;;;;;;13.37;8.03;;;3.10;99.90;;;;;;4928061;29;20028;-77
2024/01/30 01:24:58;;;;;;;19.02;8.32;;;3.10;99.90;;;;;;4928570;29;20471;-77
2024/01/30 01:27:24;;;;;;;13.95;7.65;;;3.10;99.90;;;;;;4929663;29;20111;-75
2024/01/30 01:29:51;;;;;;;15.65;7.57;;;3.00;99.90;;;;;;4929118;29;20031;-76
2024/01/30 01:32:17;;;;;;;14.13;8.30;;;3.00;99.90;;;;;;4912752;29;20083;-75
2024/01/30 01:34:42;;;;;;;13.95;8.35;;;2.90;99.90;;;;;;4928744;29;20051;-76
2024/01/30 01:37:08;;;;;;;13.60;7.90;;;2.90;99.90;;;;;;4928276;29;20024;-76
2024/01/30 01:39:34;;;;;;;12.52;8.07;;;2.80;99.90;;;;;;4928857;29;20039;-76
2024/01/30 01:41:59;;;;;;;14.02;8.48;;;2.80;99.90;;;;;;4929155;29;20084;-76
2024/01/30 01:44:25;;;;;;;15.25;8.20;;;2.80;99.90;;;;;;4926393;29;20326;-76
2024/01/30 01:46:52;;;;;;;15.80;8.10;;;2.80;99.90;;;;;;4928495;29;20061;-76
2024/01/30 01:52:19;;;;;;;17.42;8.23;;;2.80;99.90;;;;;;4917211;29;20104;-75
2024/01/30 01:54:45;;;;;;;14.43;8.20;;;2.80;99.90;;;;;;4911578;29;20319;-75
2024/01/30 01:57:11;;;;;;;12.73;6.93;;;2.70;99.90;;;;;;4929184;29;20054;-75
2024/01/30 01:59:36;;;;;;;13.43;7.80;;;2.80;99.90;;;;;;4928284;29;20028;-76
2024/01/30 02:02:03;;;;;;;12.57;7.55;;;2.70;99.90;;;;;;4929194;29;20345;-76
2024/01/30 02:04:29;;;;;;;15.10;8.27;;;2.70;99.90;;;;;;4928427;29;20024;-77
2024/01/30 02:06:55;;;;;;;13.00;8.07;;;2.70;99.90;;;;;;4928722;29;20071;-76
2024/01/30 02:09:20;;;;;;;17.65;8.63;;;2.70;99.90;;;;;;4928522;29;20244;-77
2024/01/30 02:11:46;;;;;;;16.25;8.35;;;2.70;99.90;;;;;;4928408;29;20080;-77
2024/01/30 02:14:12;;;;;;;11.85;7.05;;;2.70;99.90;;;;;;4929007;29;20307;-76
2024/01/30 02:16:37;;;;;;;13.57;7.68;;;2.60;99.90;;;;;;4928341;29;20095;-76
2024/01/30 02:19:03;;;;;;;11.80;7.88;;;2.60;99.90;;;;;;4912159;29;20016;-75
2024/01/30 02:21:29;;;;;;;13.00;7.88;;;2.60;99.90;;;;;;4910983;29;20111;-76
2024/01/30 02:23:55;;;;;;;12.40;7.45;;;2.60;99.90;;;;;;4928701;29;20103;-76
2024/01/30 02:26:21;;;;;;;18.35;7.82;;;2.60;99.90;;;;;;4928139;29;20222;-76
2024/01/30 02:28:47;;;;;;;12.95;8.25;;;2.60;99.90;;;;;;4910851;29;20225;-76
2024/01/30 02:31:12;;;;;;;13.13;7.85;;;2.60;99.90;;;;;;4911696;29;20040;-76
2024/01/30 02:33:38;;;;;;;12.88;8.25;;;2.50;99.90;;;;;;4911037;29;20099;-76
2024/01/30 02:36:04;;;;;;;14.70;8.18;;;2.60;99.90;;;;;;4927211;29;20036;-76
2024/01/30 02:38:30;;;;;;;14.40;8.40;;;2.60;99.90;;;;;;4927918;29;20059;-75
2024/01/30 02:40:56;;;;;;;15.10;8.48;;;2.60;99.90;;;;;;4911516;29;20377;-75
2024/01/30 02:43:22;;;;;;;12.57;8.10;;;2.50;99.90;;;;;;4927783;29;20032;-75
2024/01/30 02:45:47;;;;;;;14.10;8.10;;;2.50;99.90;;;;;;4927790;29;20087;-76
2024/01/30 02:48:13;;;;;;;14.35;8.23;;;2.50;99.90;;;;;;4911740;29;20083;-76
2024/01/30 02:50:39;;;;;;;13.43;8.05;;;2.50;99.90;;;;;;4910928;29;20326;-76
2024/01/30 02:53:04;;;;;;;14.77;8.13;;;2.50;99.90;;;;;;4928361;29;20024;-76
2024/01/30 02:55:30;;;;;;;13.60;7.78;;;2.40;99.90;;;;;;4895289;29;20016;-76
2024/01/30 02:57:56;;;;;;;16.75;8.27;;;2.40;99.90;;;;;;4928113;29;20055;-76
2024/01/30 03:00:21;;;;;;;12.65;7.18;;;2.40;99.90;;;;;;4928210;29;20092;-75
2024/01/30 03:02:47;;;;;;;14.65;8.65;;;2.40;99.90;;;;;;4933438;29;20342;-73
2024/01/30 03:05:13;;;;;;;13.15;8.18;;;2.30;99.90;;;;;;4917390;29;20210;-76
2024/01/30 03:07:38;;;;;;;12.68;7.57;;;2.30;99.90;;;;;;4911226;29;20036;-76
2024/01/30 03:10:05;;;;;;;12.80;8.57;;;2.20;99.90;;;;;;4913792;29;20043;-76
2024/01/30 03:12:31;;;;;;;14.38;8.52;;;2.20;99.90;;;;;;4910317;29;20057;-76
2024/01/30 03:14:57;;;;;;;15.75;8.32;;;2.20;99.90;;;;;;4910908;29;20071;-76
2024/01/30 03:17:24;;;;;;;15.23;9.23;;;2.20;99.90;;;;;;4927787;29;20332;-76
2024/01/30 03:19:50;;;;;;;14.70;8.27;;;2.20;99.90;;;;;;4904733;29;20036;-76
2024/01/30 03:22:15;;;;;;;14.93;8.75;;;2.10;99.90;;;;;;4910843;29;20024;-76
2024/01/30 03:24:41;;;;;;;13.82;8.55;;;2.10;99.90;;;;;;4910392;29;20206;-77
2024/01/30 03:27:08;;;;;;;12.27;8.20;;;2.10;99.90;;;;;;4927508;29;20035;-76
2024/01/30 03:29:33;;;;;;;14.82;8.45;;;2.20;99.90;;;;;;4909994;29;20052;-76
2024/01/30 03:31:59;;;;;;;14.80;8.60;;;2.20;99.90;;;;;;4910702;29;20024;-76
2024/01/30 03:34:25;;;;;;;15.50;9.40;;;2.10;99.90;;;;;;4927322;29;20036;-77
2024/01/30 03:36:50;;;;;;;14.85;8.50;;;2.10;99.90;;;;;;4911804;29;20278;-76
2024/01/30 03:39:16;;;;;;;14.43;8.43;;;2.10;99.90;;;;;;4927108;29;20016;-76
2024/01/30 03:41:44;;;;;;;13.45;8.57;;;2.10;99.90;;;;;;4926626;29;20154;-76
2024/01/30 03:44:10;;;;;;;14.63;9.00;;;2.10;99.90;;;;;;4910416;29;20238;-77
2024/01/30 03:46:35;;;;;;;15.73;8.90;;;2.10;99.90;;;;;;4909825;29;20535;-76
2024/01/30 03:49:01;;;;;;;15.45;8.82;;;2.00;99.90;;;;;;4927178;29;20035;-76
2024/01/30 03:51:27;;;;;;;15.68;9.30;;;2.00;99.90;;;;;;4910113;29;20315;-76
2024/01/30 03:53:53;;;;;;;16.42;8.77;;;2.00;99.90;;;;;;4910548;29;20023;-76
2024/01/30 03:56:18;;;;;;;14.68;9.27;;;2.10;99.90;;;;;;4926836;29;20214;-76
2024/01/30 03:58:44;;;;;;;15.38;8.98;;;2.10;99.90;;;;;;4926497;29;20040;-76
2024/01/30 04:01:14;;;;;;;13.95;8.65;;;2.00;99.90;;;;;;4926911;29;20039;-76
2024/01/30 04:03:40;;;;;;;14.73;8.55;;;2.00;99.90;;;;;;4926242;29;20032;-77
2024/01/30 04:06:06;;;;;;;15.57;9.13;;;2.00;99.90;;;;;;4910075;29;20062;-76
2024/01/30 04:08:32;;;;;;;13.60;8.60;;;1.90;99.90;;;;;;4926268;29;20247;-76
2024/01/30 04:10:58;;;;;;;15.70;8.95;;;1.90;99.90;;;;;;4926571;29;20305;-76
2024/01/30 04:13:23;;;;;;;15.95;9.23;;;1.90;99.90;;;;;;4909735;29;20028;-77
2024/01/30 04:15:49;;;;;;;13.93;8.32;;;2.00;99.90;;;;;;4906147;29;20044;-76
2024/01/30 04:18:15;;;;;;;12.85;8.25;;;2.00;99.90;;;;;;4906735;29;20028;-76
2024/01/30 04:20:40;;;;;;;13.25;8.48;;;2.00;99.90;;;;;;4907605;29;20326;-77
2024/01/30 04:23:06;;;;;;;14.13;8.38;;;2.00;99.90;;;;;;4907863;29;20104;-77
2024/01/30 04:25:31;;;;;;;13.75;8.35;;;2.00;99.90;;;;;;4890554;29;20206;-77
2024/01/30 04:27:57;;;;;;;14.23;8.18;;;1.90;99.90;;;;;;4891089;29;20033;-77
2024/01/30 04:30:23;;;;;;;14.38;8.73;;;1.90;99.90;;;;;;4907430;29;20028;-76
2024/01/30 04:32:48;;;;;;;15.20;9.25;;;1.90;99.90;;;;;;4906834;29;20377;-76
2024/01/30 04:35:14;;;;;;;14.30;8.80;;;1.80;99.90;;;;;;4909293;29;20020;-76
2024/01/30 04:37:40;;;;;;;15.32;9.10;;;1.80;99.90;;;;;;4893065;29;20307;-76
2024/01/30 04:40:06;;;;;;;18.90;9.98;;;1.80;99.90;;;;;;4907414;29;20042;-76
2024/01/30 04:42:32;;;;;;;18.38;9.77;;;1.90;99.90;;;;;;4906657;29;20307;-77
2024/01/30 04:44:57;;;;;;;16.63;9.52;;;1.90;99.90;;;;;;4907125;29;20059;-76
2024/01/30 04:47:23;;;;;;;16.58;9.27;;;1.90;99.90;;;;;;4890321;29;20362;-76
2024/01/30 04:49:50;;;;;;;17.42;9.23;;;1.90;99.90;;;;;;4906580;29;20044;-76
2024/01/30 04:52:16;;;;;;;17.48;9.85;;;1.80;99.90;;;;;;4918635;29;20039;-76
2024/01/30 04:54:41;;;;;;;15.38;9.32;;;1.80;99.90;;;;;;4924589;29;20024;-76
2024/01/30 04:57:09;;;;;;;16.48;9.85;;;1.90;99.90;;;;;;4926134;29;20024;-75
2024/01/30 04:59:36;;;;;;;16.08;9.82;;;1.80;99.90;;;;;;4925723;29;20071;-76
2024/01/30 05:02:01;;;;;;;16.83;9.70;;;1.80;99.90;;;;;;4909266;29;20036;-76
2024/01/30 05:04:27;;;;;;;18.48;10.45;;;1.80;99.90;;;;;;4909442;29;20062;-75
2024/01/30 05:06:53;;;;;;;17.10;9.65;;;1.70;99.90;;;;;;4909024;29;20066;-75
2024/01/30 05:09:18;;;;;;;16.38;9.30;;;1.70;99.90;;;;;;4926020;29;20083;-76
2024/01/30 05:11:44;;;;;;;15.27;9.18;;;1.70;99.90;;;;;;4918706;29;20055;-76
2024/01/30 05:14:11;;;;;;;15.80;9.00;;;1.80;99.90;;;;;;4893407;29;20048;-76
2024/01/30 05:16:37;;;;;;;14.48;8.70;;;1.80;99.90;;;;;;4893167;29;20028;-77
2024/01/30 05:19:03;;;;;;;13.75;7.60;;;1.80;99.90;;;;;;4893501;29;20035;-77
2024/01/30 05:21:28;;;;;;;14.35;8.80;;;1.80;99.90;;;;;;4925398;29;20036;-76
2024/01/30 05:23:54;;;;;;;12.32;8.02;;;1.80;99.90;;;;;;4926012;29;20039;-76
2024/01/30 05:26:20;;;;;;;11.73;7.47;;;1.90;99.90;;;;;;4893521;29;20028;-77
2024/01/30 05:28:45;;;;;;;13.02;8.02;;;1.90;99.90;;;;;;4924522;29;20047;-76
2024/01/30 05:31:11;;;;;;;12.95;7.88;;;1.90;99.90;;;;;;4925714;29;20059;-75
2024/01/30 05:33:37;;;;;;;11.57;7.60;;;2.00;99.90;;;;;;4925344;29;20032;-75
2024/01/30 05:36:03;;;;;;;15.52;9.23;;;2.00;99.90;;;;;;4925881;29;20243;-76
2024/01/30 05:38:30;;;;;;;14.27;8.57;;;2.00;99.90;;;;;;4908504;29;20040;-76
2024/01/30 05:40:57;;;;;;;14.38;8.35;;;2.10;99.90;;;;;;4908982;29;20044;-76
2024/01/30 05:43:23;;;;;;;14.18;8.57;;;2.20;99.90;;;;;;4925703;29;20171;-76
2024/01/30 05:45:49;;;;;;;15.35;7.97;;;2.30;99.90;;;;;;4920992;29;20114;-77
2024/01/30 05:48:15;;;;;;;12.98;7.88;;;2.30;99.90;;;;;;4919245;29;20137;-76
2024/01/30 05:50:41;;;;;;;10.50;7.53;;;2.20;99.90;;;;;;4923971;29;20027;-77
2024/01/30 05:53:06;;;;;;;11.48;7.90;;;2.30;99.90;;;;;;4925593;29;20047;-76
2024/01/30 05:55:32;;;;;;;11.70;7.50;;;2.30;99.90;;;;;;4924194;29;20250;-76
2024/01/30 05:57:58;;;;;;;13.07;7.60;;;2.30;99.90;;;;;;4923864;29;20016;-76
2024/01/30 06:00:23;;;;;;;13.38;7.63;;;2.30;99.90;;;;;;4924284;29;20112;-76
2024/01/30 06:02:49;;;;;;;13.45;7.72;;;2.30;99.90;;;;;;4925193;29;20032;-76
2024/01/30 06:05:15;;;;;;;12.45;7.78;;;2.20;99.90;;;;;;4928056;29;20180;-75
2024/01/30 06:07:40;;;;;;;11.63;7.80;;;2.20;99.90;;;;;;4927396;29;20310;-75
2024/01/30 06:10:07;;;;;;;12.07;7.97;;;2.10;99.90;;;;;;4927851;29;20040;-76
2024/01/30 06:12:33;;;;;;;12.63;8.10;;;2.10;99.90;;;;;;4927247;29;20020;-77
2024/01/30 06:14:59;;;;;;;12.13;7.82;;;2.10;99.90;;;;;;4927317;29;20317;-76
2024/01/30 06:17:24;;;;;;;11.02;6.63;;;2.00;99.90;;;;;;4928325;29;20084;-76
2024/01/30 06:19:50;;;;;;;10.43;7.10;;;2.00;99.90;;;;;;4921662;29;20037;-75
2024/01/30 06:22:16;;;;;;;11.35;7.72;;;1.90;99.90;;;;;;4924486;29;20365;-76
2024/01/30 06:24:44;;;;;;;11.52;7.22;;;1.90;99.90;;;;;;4909196;29;20078;-76
2024/01/30 06:27:10;;;;;;;12.68;7.32;;;1.90;99.90;;;;;;4909636;29;20287;-75
2024/01/30 06:29:36;;;;;;;14.77;7.90;;;1.80;99.90;;;;;;4909302;29;20033;-75
2024/01/30 06:32:01;;;;;;;14.82;7.30;;;1.80;99.90;;;;;;4909575;29;20259;-76
2024/01/30 06:34:27;;;;;;;13.25;7.55;;;1.80;99.90;;;;;;4909477;29;20024;-76
2024/01/30 06:36:53;;;;;;;12.82;7.43;;;1.70;99.90;;;;;;4924837;29;20095;-76
2024/01/30 06:39:19;;;;;;;11.93;7.40;;;1.70;99.90;;;;;;4928472;29;20105;-76
2024/01/30 06:41:46;;;;;;;14.68;8.35;;;1.80;99.90;;;;;;4926656;29;20028;-76
2024/01/30 06:44:12;;;;;;;11.80;6.13;;;1.70;99.90;;;;;;4926752;29;20233;-76
2024/01/30 06:46:38;;;;;;;13.02;8.25;;;1.70;99.90;;;;;;4927378;29;20052;-76
2024/01/30 06:49:04;;;;;;;13.18;7.38;;;1.80;99.90;;;;;;4919627;29;20100;-77
2024/01/30 06:51:30;;;;;;;13.88;8.18;;;1.80;99.90;;;;;;4910472;29;20222;-76
2024/01/30 06:53:56;;;;;;;11.65;7.90;;;1.80;99.90;;;;;;4909349;29;20028;-77
2024/01/30 06:56:22;;;;;;;13.38;8.45;;;1.90;99.90;;;;;;4927925;29;20016;-77
2024/01/30 06:58:48;;;;;;;13.52;8.82;;;1.90;99.90;;;;;;4926003;29;20092;-76
2024/01/30 07:01:15;;;;;;;14.25;8.68;;;2.00;99.90;;;;;;4911036;29;20095;-75
2024/01/30 07:03:41;;;;;;;15.13;9.00;;;2.00;99.90;;;;;;4908233;29;20017;-74
2024/01/30 07:06:08;;;;;;;16.85;8.85;;;2.10;99.90;;;;;;4922509;29;20032;-75
2024/01/30 07:08:33;;;;;;;15.98;9.02;;;2.10;99.90;;;;;;4927343;29;20098;-76
2024/01/30 07:10:59;;;;;;;14.43;8.55;;;2.10;99.90;;;;;;4910112;29;20028;-77
2024/01/30 07:13:25;;;;;;;14.43;7.88;;;2.20;99.90;;;;;;4927067;29;20040;-75
2024/01/30 07:15:57;;;;;;;13.95;8.18;;;2.10;99.90;;;;;;4925609;29;20040;-76
2024/01/30 07:18:39;;;;;;;10.90;7.18;;;2.10;99.90;;;;;;4927074;29;20282;-77
2024/01/30 07:21:35;;;;;;;12.77;8.60;;;2.10;99.90;;;;;;4910166;29;20040;-76
2024/01/30 07:24:03;;;;;;;13.32;8.30;;;2.20;99.90;;;;;;4906348;29;20096;-76
2024/01/30 07:26:29;;;;;;;12.90;7.93;;;2.30;99.90;;;;;;4909959;29;20243;-75
2024/01/30 07:28:58;;;;;;;14.48;8.68;;;2.30;99.90;;;;;;4920198;29;20032;-76
2024/01/30 07:31:23;;;;;;;12.98;8.18;;;2.30;99.90;;;;;;4927089;29;20291;-76
2024/01/30 07:34:12;;;;;;;12.68;8.05;;;2.40;99.90;;;;;;4926793;29;20091;-76
2024/01/30 07:36:37;;;;;;;13.43;8.18;;;2.50;99.90;;;;;;4909675;29;20356;-76
2024/01/30 07:39:37;;;;;;;13.05;7.30;;;2.60;99.90;;;;;;4926979;29;20155;-76
2024/01/30 07:42:03;;;;;;;12.43;8.60;;;2.60;99.90;;;;;;4891822;29;20048;-77
2024/01/30 07:44:38;;;;;;;13.13;8.32;;;2.60;99.90;;;;;;4908384;29;20275;-77
2024/01/30 07:47:05;;;;;;;13.27;7.88;;;2.70;99.90;;;;;;4908083;29;20033;-77
2024/01/30 07:49:38;;;;;;;14.15;7.95;;;2.70;99.90;;;;;;4932495;29;20103;-77
2024/01/30 07:52:09;;;;;;;10.93;7.95;;;2.80;99.90;;;;;;4917556;29;20044;-77
2024/01/30 07:55:07;;;;;;;11.65;7.65;;;2.90;99.90;;;;;;4940734;29;20259;-76
2024/01/30 07:58:03;;;;;;;13.95;7.65;;;2.90;99.90;;;;;;4852276;29;20361;-76
2024/01/30 08:00:29;;;;;;;12.88;7.90;;;3.00;99.90;;;;;;4837940;29;20033;-77
2024/01/30 08:02:55;;;;;;;11.93;7.63;;;3.00;99.90;;;;;;4853845;29;20048;-76
2024/01/30 08:05:24;;;;;;;14.00;8.13;;;3.10;99.90;;;;;;4857584;29;20058;-77
2024/01/30 08:07:50;;;;;;;12.63;7.90;;;3.20;99.90;;;;;;4881574;29;20041;-77
2024/01/30 08:10:18;;;;;;;14.35;7.60;;;3.30;99.90;;;;;;4880256;29;20049;-77
2024/01/30 08:12:44;;;;;;;14.70;8.52;;;3.40;99.90;;;;;;4863381;29;20075;-78
2024/01/30 08:15:13;;;;;;;14.10;8.13;;;3.50;99.90;;;;;;4868445;29;20116;-77
2024/01/30 08:17:40;;;;;;;12.75;8.23;;;3.60;99.90;;;;;;4852458;29;20096;-77
2024/01/30 08:20:08;;;;;;;13.40;7.93;;;3.70;99.90;;;;;;4852922;29;20295;-77
2024/01/30 08:22:33;;;;;;;14.77;7.67;;;3.80;99.90;;;;;;4867263;29;20101;-76
2024/01/30 08:24:59;;;;;;;15.00;8.00;;;3.80;99.90;;;;;;4868063;29;20829;-75
2024/01/30 08:27:25;;;;;;;12.75;7.18;;;3.90;99.90;;;;;;4853098;29;20029;-78
2024/01/30 08:30:14;;;;;;;14.38;7.70;;;4.00;99.90;;;;;;4837060;29;20109;-78
2024/01/30 08:32:40;;;;;;;13.38;8.20;;;4.20;99.90;;;;;;4862972;29;20117;-76
2024/01/30 08:35:06;;;;;;;12.65;8.10;;;4.30;99.90;;;;;;4896760;29;20051;-76
2024/01/30 08:37:32;;;;;;;15.85;8.68;;;4.40;99.90;;;;;;4924500;29;20043;-77
2024/01/30 08:39:57;;;;;;;14.00;8.40;;;4.40;99.90;;;;;;4925361;29;20103;-76
2024/01/30 08:42:23;;;;;;;18.67;8.82;;;4.60;99.90;;;;;;4925610;29;20036;-76
2024/01/30 08:44:51;;;;;;;14.90;8.00;;;4.80;99.90;;;;;;4925538;29;20047;-76
2024/01/30 08:47:18;;;;;;;13.40;8.45;;;4.90;99.90;;;;;;4909060;29;20040;-76
2024/01/30 08:49:44;;;;;;;13.38;7.30;;;4.90;99.90;;;;;;4904823;29;20024;-76
2024/01/30 08:52:10;;;;;;;15.88;7.72;;;5.10;99.90;;;;;;4907029;29;20107;-77
2024/01/30 08:54:36;;;;;;;13.38;7.22;;;5.20;99.90;;;;;;4889580;29;20021;-77
2024/01/30 08:57:02;;;;;;;12.40;7.05;;;5.30;99.90;;;;;;4901300;29;20028;-77
2024/01/30 08:59:34;;;;;;;13.35;7.50;;;5.40;99.90;;;;;;4908640;29;20055;-77
2024/01/30 09:05:59;;;;;;;11.40;7.25;;;5.60;99.90;;;;;;4852936;29;20076;-77
2024/01/30 09:08:25;;;;;;;13.38;7.10;;;5.60;99.90;;;;;;4889845;29;20036;-77
2024/01/30 09:10:51;;;;;;;12.70;7.00;;;5.70;99.90;;;;;;4874049;29;20099;-77
2024/01/30 09:13:16;;;;;;;10.82;6.70;;;5.80;99.70;;;;;;4906900;29;20037;-77
2024/01/30 09:15:42;;;;;;;12.73;7.25;;;5.90;99.40;;;;;;4893220;29;20206;-75
2024/01/30 09:18:09;;;;;;;14.25;7.68;;;6.00;99.20;;;;;;4925704;29;20152;-76
2024/01/30 09:20:35;;;;;;;11.60;7.10;;;6.10;98.80;;;;;;4924640;29;20107;-77
2024/01/30 09:23:00;;;;;;;10.85;6.85;;;6.30;98.70;;;;;;4908508;29;20048;-76
2024/01/30 09:25:26;;;;;;;10.93;7.00;;;6.50;98.30;;;;;;4924092;29;20036;-76
2024/01/30 09:27:52;;;;;;;13.80;7.50;;;6.60;97.80;;;;;;4908150;29;20032;-76
2024/01/30 09:30:17;;;;;;;10.75;6.85;;;6.70;97.40;;;;;;4908305;29;20028;-76
2024/01/30 09:32:43;;;;;;;13.35;7.22;;;6.80;97.30;;;;;;4924448;29;20043;-76
2024/01/30 09:35:09;;;;;;;14.50;7.43;;;6.90;96.90;;;;;;4908363;29;20040;-77
2024/01/30 09:37:35;;;;;;;11.52;7.47;;;7.10;96.90;;;;;;4925475;29;20051;-77
2024/01/30 09:40:01;;;;;;;13.40;8.23;;;7.20;96.50;;;;;;4912187;29;20123;-77
2024/01/30 09:42:36;;;;;;;13.80;8.07;;;7.20;96.30;;;;;;4912110;29;20028;-77
2024/01/30 09:45:04;;;;;;;12.70;8.15;;;7.30;96.10;;;;;;4933928;29;20079;-77
2024/01/30 09:47:40;;;;;;;10.77;7.15;;;7.50;95.80;;;;;;4927788;29;20032;-77
2024/01/30 09:50:10;;;;;;;12.10;7.35;;;7.50;95.40;;;;;;4927629;29;20351;-77
2024/01/30 09:52:37;;;;;;;12.15;7.40;;;7.60;95.20;;;;;;4923824;29;20039;-77
2024/01/30 09:55:03;;;;;;;12.27;7.32;;;7.50;95.10;;;;;;4908799;29;20221;-76
2024/01/30 09:57:29;;;;;;;13.57;7.70;;;7.70;95.00;;;;;;4923751;29;20177;-77
2024/01/30 09:59:58;;;;;;;13.68;7.65;;;7.90;94.60;;;;;;4928426;29;20067;-78
2024/01/30 10:02:23;;;;;;;;;;;8.00;94.10;;;;;;4929013;29;20034;-77
2024/01/30 10:04:50;;;;;;;12.15;7.00;;;8.30;94.00;;;;;;4911117;29;19911;-77
2024/01/30 10:07:16;;;;;;;10.95;6.97;;;8.40;93.30;;;;;;4928588;29;20054;-77
2024/01/30 10:09:42;;;;;;;15.07;7.88;;;8.60;93.20;;;;;;4927872;29;20271;-76
2024/01/30 10:12:09;;;;;;;13.15;7.85;;;8.60;93.00;;;;;;4928397;29;20046;-76
2024/01/30 10:14:44;;;;;;;14.13;7.45;;;8.70;92.90;;;;;;4910776;29;20035;-75
2024/01/30 10:17:11;;;;;;;10.98;6.82;;;8.90;92.50;;;;;;4926781;29;20111;-76
2024/01/30 10:19:41;;;;;;;13.73;7.45;;;9.00;92.30;;;;;;4927362;29;20274;-76
2024/01/30 10:22:07;;;;;;;16.33;7.93;;;9.10;92.00;;;;;;4926698;29;20028;-76
2024/01/30 10:24:36;;;;;;;15.40;8.32;;;9.10;91.90;;;;;;4928065;29;20039;-75
2024/01/30 10:27:02;;;;;;;18.15;8.95;;;9.20;91.70;;;;;;4928291;29;20028;-76
2024/01/30 10:29:28;;;;;;;28.25;9.63;;;9.30;91.70;;;;;;4927849;29;20032;-77
2024/01/30 10:32:12;;;;;;;16.80;7.68;;;9.50;91.60;;;;;;4910523;29;20032;-75
2024/01/30 10:34:38;;;;;;;15.02;8.05;;;9.60;91.30;;;;;;4926680;29;20036;-75
2024/01/30 10:37:17;;;;;;;11.93;7.40;;;9.80;91.30;;;;;;4927817;29;20063;-75
2024/01/30 10:39:44;;;;;;;14.65;7.65;;;9.80;91.10;;;;;;4926912;29;20051;-75
2024/01/30 10:42:13;;;;;;;15.00;7.75;;;9.80;91.10;;;;;;4927549;29;20050;-75
2024/01/30 10:45:01;;;;;;;16.98;7.65;;;9.90;91.10;;;;;;4927114;29;20135;-74
2024/01/30 10:47:29;;;;;;;13.65;7.53;;;9.90;90.90;;;;;;4911156;29;20048;-74
2024/01/30 10:49:56;;;;;;;15.23;7.72;;;9.90;90.80;;;;;;4927212;29;20036;-74
2024/01/30 10:52:26;;;;;;;12.95;7.38;;;10.00;90.70;;;;;;4928115;29;20032;-74
2024/01/30 10:54:53;;;;;;;14.70;7.25;;;10.20;90.30;;;;;;4910401;29;20114;-75
2024/01/30 10:57:22;;;;;;;14.73;7.57;;;10.40;90.40;;;;;;4910626;29;20314;-75
2024/01/30 10:59:49;;;;;;;12.70;7.40;;;10.60;90.30;;;;;;4927352;29;20059;-76
2024/01/30 11:02:15;;;;;;;13.48;8.00;;;10.60;89.90;;;;;;4927311;29;20272;-74
2024/01/30 11:04:41;;;;;;;12.95;7.68;;;10.80;89.90;;;;;;4926700;29;20270;-74
2024/01/30 11:07:20;;;;;;;12.90;7.70;;;10.80;89.40;;;;;;4910734;29;20020;-74
2024/01/30 11:10:06;;;;;;;12.93;7.15;;;10.90;87.90;;;;;;4926808;29;20047;-75
2024/01/30 11:12:37;;;;;;;13.32;7.97;;;11.00;88.60;;;;;;4926720;29;20218;-74
2024/01/30 11:15:11;;;;;;;19.83;8.27;;;11.20;88.60;;;;;;4910424;29;20034;-74
2024/01/30 11:17:49;;;;;;;15.27;8.45;;;11.30;87.90;;;;;;4908227;29;20035;-78
2024/01/30 11:20:25;;;;;;;15.23;8.63;;;11.30;87.30;;;;;;4923013;29;20040;-74
2024/01/30 11:22:52;;;;;;;14.00;8.30;;;11.40;87.80;;;;;;4918038;29;20028;-75
2024/01/30 11:25:20;;;;;;;15.63;7.97;;;11.30;87.70;;;;;;4927614;29;20263;-74
2024/01/30 11:27:46;;;;;;;13.77;7.53;;;11.20;87.90;;;;;;4929869;29;20087;-76
2024/01/30 11:30:26;;;;;;;13.40;7.75;;;11.30;87.80;;;;;;4931256;29;20024;-76
2024/01/30 11:33:05;;;;;;;12.25;7.82;;;11.30;87.90;;;;;;4928923;29;20311;-74
2024/01/30 11:35:35;;;;;;;15.35;8.13;;;11.50;87.60;;;;;;4926493;29;20046;-76
2024/01/30 11:38:02;;;;;;;15.30;8.65;;;11.70;87.00;;;;;;4926673;29;20255;-74
2024/01/30 11:40:29;;;;;;;16.15;8.00;;;11.80;86.90;;;;;;4909453;29;20064;-75
2024/01/30 11:42:59;;;;;;;12.70;8.10;;;11.70;87.00;;;;;;4926397;29;20187;-76
2024/01/30 11:45:26;;;;;;;14.27;8.48;;;11.70;87.00;;;;;;4917135;29;20056;-74
2024/01/30 11:47:52;;;;;;;15.02;8.25;;;11.80;87.00;;;;;;4918856;29;20025;-74
2024/01/30 11:50:18;;;;;;;14.05;7.88;;;12.00;86.20;;;;;;4926060;29;20103;-76
2024/01/30 11:52:43;;;;;;;14.45;7.25;;;12.00;86.10;;;;;;4925573;29;20036;-74
2024/01/30 11:55:10;;;;;;;14.63;7.70;;;12.20;86.00;;;;;;4926071;29;20246;-74
2024/01/30 11:57:36;;;;;;;14.15;7.88;;;12.30;85.00;;;;;;4923505;29;20211;-75
2024/01/30 12:00:10;;;;;;;11.93;6.63;;;12.40;84.50;;;;;;4922337;29;20035;-75
2024/01/30 12:02:42;;;;;;;13.43;7.97;;;12.50;85.20;;;;;;4918312;29;20033;-74
2024/01/30 12:05:12;;;;;;;14.10;7.68;;;12.70;83.80;;;;;;4907705;29;20084;-78
2024/01/30 12:07:37;;;;;;;17.13;8.10;;;12.90;83.30;;;;;;4905893;29;20176;-77
2024/01/30 12:10:05;;;;;;;14.10;7.43;;;12.90;83.20;;;;;;4907675;29;20035;-79
2024/01/30 12:12:34;;;;;;;24.73;7.90;;;12.90;83.30;;;;;;4906789;29;20315;-78
2024/01/30 12:15:03;;;;;;;17.90;7.50;;;12.90;83.20;;;;;;4921953;29;20433;-77
2024/01/30 12:17:34;;;;;;;14.48;7.47;;;12.90;83.30;;;;;;4920815;29;20251;-78
2024/01/30 12:20:12;;;;;;;12.07;7.35;;;13.00;82.60;;;;;;4920398;29;20083;-77
2024/01/30 12:22:38;;;;;;;14.70;7.17;;;13.10;83.20;;;;;;4925690;29;20334;-76
2024/01/30 12:25:08;;;;;;;11.20;6.93;;;13.10;82.20;;;;;;4916620;29;20024;-76
2024/01/30 12:27:34;;;;;;;15.95;8.13;;;13.30;81.90;;;;;;4937585;29;20096;-76
2024/01/30 12:29:59;;;;;;;14.90;7.90;;;13.50;81.70;;;;;;4938308;29;20035;-76
2024/01/30 12:32:25;;;;;;;13.65;7.78;;;13.30;81.70;;;;;;4920544;29;20048;-76
2024/01/30 12:34:55;;;;;;;19.27;8.32;;;13.50;81.90;;;;;;4925418;29;20040;-75
2024/01/30 12:37:22;;;;;;;18.23;7.50;;;13.70;81.50;;;;;;4914650;29;20040;-76
2024/01/30 12:39:48;;;;;;;17.15;8.02;;;13.80;81.20;;;;;;4925069;29;20039;-76
2024/01/30 12:42:14;;;;;;;13.57;7.45;;;13.90;81.90;;;;;;4925266;29;20307;-76
2024/01/30 12:44:41;;;;;;;14.73;7.93;;;13.90;80.40;;;;;;4930101;29;20108;-77
2024/01/30 12:47:09;;;;;;;14.10;7.30;;;14.00;79.80;;;;;;4940513;29;20039;-77
2024/01/30 12:49:35;;;;;;;14.48;8.27;;;14.30;79.60;;;;;;4924607;29;20028;-78
2024/01/30 12:52:01;;;;;;;14.45;6.63;;;14.70;78.40;;;;;;4944996;29;20206;-77
2024/01/30 12:54:27;;;;;;;17.75;7.05;;;15.70;77.20;;;;;;4940490;29;20036;-77